Trident, Montana
Current Conditions -  °F | °C
As of 3:56 AM on Friday 28 Nov 2014 (Local Time) from KBZN Reporting Station
Scattered Clouds Scattered Clouds  
Wind Chill: 51°   Ceiling: Unl
Heat Index: 51°   Visibility: 10mi
Dew Point: 27°   Wind: 10mph
Humidity: 39%   Direction: 230°SW
Pressure: 29.77"   Gusts: 20mph
Location:  45.8877°N, 111.462°W
Report Text: KBZN 281056Z AUTO 23009G17KT 10SM SCT085 11/M03 A2977 RMK AO2 SLP071 T01061028 $
Loading
Personal Weather Stations






























Interactive Weather Map New forecast layout! Learn more

10-Day Weather Forecast

Advertisements
Track Severe Weather on mobile